Time;durP1;ratioP1;P1;durP2;ratioP2;P2;SDS_P1;SDS_P2;PMS_P1;PMS_P2;Temp;Humidity;BMP_temperature;BMP_pressure;BME280_temperature;BME280_humidity;BME280_pressure;Samples;Min_cycle;Max_cycle;Signal;HPM_P1;HPM_P2
2023/02/27 00:01:55;;;;;;;11.95;4.70;;;;;;;1.42;62.31;102222.81;5096039;28;20075;-54
2023/02/27 00:04:22;;;;;;;16.58;5.65;;;;;;;1.40;62.54;102229.00;5092342;28;20135;-55
2023/02/27 00:06:48;;;;;;;11.25;4.72;;;;;;;1.27;62.94;102229.47;5096453;28;20044;-55
2023/02/27 00:09:15;;;;;;;14.68;4.25;;;;;;;1.40;63.44;102235.09;5091727;28;20044;-55
2023/02/27 00:11:42;;;;;;;13.02;4.32;;;;;;;1.43;63.15;102232.34;5096169;28;20052;-54
2023/02/27 00:14:08;;;;;;;15.73;4.90;;;;;;;1.49;62.91;102236.50;5091783;28;20032;-55
2023/02/27 00:16:35;;;;;;;11.68;4.20;;;;;;;1.43;62.44;102232.34;5096254;28;20051;-55
2023/02/27 00:19:03;;;;;;;13.18;4.75;;;;;;;1.46;62.09;102242.72;5091893;28;20064;-55
2023/02/27 00:21:31;;;;;;;13.77;4.65;;;;;;;1.43;62.15;102234.13;5096077;28;20048;-55
2023/02/27 00:23:57;;;;;;;12.98;5.40;;;;;;;1.48;62.98;102238.28;5091577;28;20048;-55
2023/02/27 00:26:24;;;;;;;11.93;4.85;;;;;;;1.26;62.94;102238.22;5095645;28;20044;-55
2023/02/27 00:28:52;;;;;;;13.48;4.90;;;;;;;1.32;63.58;102240.59;5091782;28;20048;-55
2023/02/27 00:31:19;;;;;;;11.38;4.75;;;;;;;1.36;63.70;102243.97;5095869;28;20079;-54
2023/02/27 00:33:45;;;;;;;16.75;5.15;;;;;;;1.33;62.73;102246.72;5091759;28;20044;-54
2023/02/27 00:36:12;;;;;;;18.00;5.22;;;;;;;1.30;64.30;102242.44;5092389;28;20052;-54
2023/02/27 00:38:39;;;;;;;11.52;5.22;;;;;;;1.09;64.58;102244.09;5095682;28;20123;-54
2023/02/27 00:41:05;;;;;;;12.90;5.32;;;;;;;1.04;64.56;102245.16;5091677;28;20075;-54
2023/02/27 00:43:32;;;;;;;12.23;5.38;;;;;;;1.02;64.58;102240.00;5095520;28;20067;-55
2023/02/27 00:45:59;;;;;;;12.68;5.10;;;;;;;1.03;65.21;102244.28;5090899;28;20123;-55
2023/02/27 00:48:27;;;;;;;14.45;4.88;;;;;;;1.07;64.91;102239.81;5095628;28;20417;-55
2023/02/27 00:50:54;;;;;;;13.02;5.22;;;;;;;1.04;65.02;102240.78;5091490;28;20058;-54
2023/02/27 00:53:21;;;;;;;11.00;5.10;;;;;;;1.09;64.68;102244.09;5095197;28;20058;-54
2023/02/27 00:55:48;;;;;;;12.10;5.18;;;;;;;1.11;65.55;102246.63;5091017;28;20052;-54
2023/02/27 00:58:15;;;;;;;14.02;5.63;;;;;;;1.17;65.60;102243.81;5095338;28;20075;-54
2023/02/27 01:00:42;;;;;;;12.82;5.25;;;;;;;1.11;65.48;102241.41;5090876;28;20505;-54
2023/02/27 01:03:09;;;;;;;13.50;5.40;;;;;;;0.92;66.17;102242.06;5095332;28;20513;-54
2023/02/27 01:05:36;;;;;;;14.57;5.63;;;;;;;0.91;65.63;102247.34;5091058;28;20050;-55
2023/02/27 01:08:03;;;;;;;16.83;5.50;;;;;;;0.89;66.03;102236.97;5094532;28;20043;-54
2023/02/27 01:10:30;;;;;;;12.73;5.47;;;;;;;1.00;65.81;102241.81;5090867;28;20056;-54
2023/02/27 01:12:57;;;;;;;16.02;5.43;;;;;;;0.89;66.49;102238.72;5095226;28;20127;-55
2023/02/27 01:15:25;;;;;;;15.18;5.80;;;;;;;0.82;66.49;102237.22;5091028;28;20048;-55
2023/02/27 01:17:51;;;;;;;11.82;5.55;;;;;;;1.01;66.53;102247.88;5093580;28;20495;-54
2023/02/27 01:20:20;;;;;;;17.65;6.10;;;;;;;0.96;66.34;102237.59;5090528;28;20093;-55
2023/02/27 01:22:47;;;;;;;15.50;5.95;;;;;;;1.03;66.03;102240.84;5094728;28;20397;-55
2023/02/27 01:25:14;;;;;;;13.55;5.68;;;;;;;1.05;66.58;102237.25;5089408;28;20045;-55
2023/02/27 01:27:42;;;;;;;12.70;5.70;;;;;;;1.01;66.15;102234.81;5094671;28;20044;-55
2023/02/27 01:30:10;;;;;;;12.25;6.00;;;;;;;0.84;67.10;102232.81;5090367;28;20440;-54
2023/02/27 01:32:37;;;;;;;16.70;6.55;;;;;;;0.86;66.43;102231.00;5095124;28;20056;-54
2023/02/27 01:35:05;;;;;;;16.50;5.95;;;;;;;0.90;67.17;102227.38;5087055;28;20494;-55
2023/02/27 01:37:31;;;;;;;16.17;6.15;;;;;;;0.76;67.19;102223.50;5094599;28;20486;-54
2023/02/27 01:39:58;;;;;;;13.50;5.97;;;;;;;0.85;67.34;102224.06;5094469;28;20052;-54
2023/02/27 01:42:27;;;;;;;13.90;5.88;;;;;;;0.81;67.72;102232.91;5089930;28;20509;-55
2023/02/27 01:47:52;;;;;;;20.10;6.20;;;;;;;0.75;67.91;102232.22;5059010;28;20415;-55
2023/02/27 01:50:21;;;;;;;12.57;6.28;;;;;;;0.80;67.54;102231.19;5055994;28;20468;-56
2023/02/27 01:52:53;;;;;;;13.45;5.93;;;;;;;0.76;67.36;102226.09;5068931;28;20500;-53
2023/02/27 01:55:21;;;;;;;15.60;6.80;;;;;;;0.67;67.40;102228.16;5068185;28;20048;-54
2023/02/27 01:57:49;;;;;;;14.10;5.85;;;;;;;0.64;68.04;102226.53;5069036;28;20070;-56
2023/02/27 02:00:17;;;;;;;12.07;6.03;;;;;;;0.70;68.10;102222.84;5067801;28;20040;-53
2023/02/27 02:02:59;;;;;;;14.32;6.00;;;;;;;0.79;68.58;102226.91;5068253;28;20488;-55
2023/02/27 02:05:28;;;;;;;15.52;6.40;;;;;;;0.85;68.26;102231.91;5066552;28;20049;-56
2023/02/27 02:07:58;;;;;;;13.55;5.85;;;;;;;0.90;68.21;102232.59;5070047;28;20132;-56
2023/02/27 02:10:26;;;;;;;14.00;5.95;;;;;;;0.87;67.73;102235.31;5065495;28;20716;-54
2023/02/27 02:12:54;;;;;;;12.43;5.82;;;;;;;0.82;68.09;102230.25;5070297;28;20049;-56
2023/02/27 02:15:29;;;;;;;13.45;5.82;;;;;;;0.80;68.25;102233.81;5067912;28;20045;-56
2023/02/27 02:18:15;;;;;;;17.92;6.25;;;;;;;0.67;68.61;102230.78;5069989;28;20048;-56
2023/02/27 02:21:19;;;;;;;13.88;6.03;;;;;;;0.66;68.19;102226.47;5065184;28;20437;-56
2023/02/27 02:24:26;;;;;;;16.48;6.15;;;;;;;0.69;68.60;102237.69;5069410;28;20178;-56
2023/02/27 02:27:04;;;;;;;12.73;5.63;;;;;;;0.51;69.10;102231.31;5064574;28;20076;-56
2023/02/27 02:32:48;;;;;;;14.45;6.25;;;;;;;0.52;69.07;102219.13;5106421;27;20415;-54
2023/02/27 02:35:46;;;;;;;13.15;6.25;;;;;;;0.47;69.67;102216.66;5109553;28;20452;-54
2023/02/27 02:38:52;;;;;;;15.20;5.97;;;;;;;0.56;69.47;102224.19;5106838;28;20056;-53
2023/02/27 02:41:34;;;;;;;14.38;6.00;;;;;;;0.38;69.91;102223.06;5110797;28;20043;-54
2023/02/27 02:44:14;;;;;;;13.80;6.43;;;;;;;0.36;70.14;102224.00;5109588;28;20036;-54
2023/02/27 02:46:51;;;;;;;14.20;6.25;;;;;;;0.39;70.14;102223.91;5105963;28;20467;-51
2023/02/27 02:49:57;;;;;;;13.23;5.68;;;;;;;0.39;70.15;102218.69;5110930;28;20425;-53
2023/02/27 02:52:38;;;;;;;14.48;5.93;;;;;;;0.40;70.64;102219.53;5085796;28;20076;-54
2023/02/27 02:55:17;;;;;;;17.92;6.07;;;;;;;0.45;70.60;102218.47;5090417;28;20127;-56
2023/02/27 02:57:53;;;;;;;14.43;5.63;;;;;;;0.41;70.69;102219.47;5085785;28;20044;-55
2023/02/27 03:00:27;;;;;;;14.27;5.43;;;;;;;0.38;70.62;102207.41;5098990;28;20127;-55
2023/02/27 03:03:06;;;;;;;12.98;5.90;;;;;;;0.47;70.62;102224.47;5105965;28;20044;-55
2023/02/27 03:05:39;;;;;;;12.75;5.55;;;;;;;0.33;70.95;102211.91;5110726;28;20051;-55
2023/02/27 03:08:19;;;;;;;12.75;6.22;;;;;;;0.41;70.42;102216.03;5104069;28;20040;-55
2023/02/27 03:11:03;;;;;;;14.68;5.70;;;;;;;0.51;71.30;102217.41;5110542;28;20044;-55
2023/02/27 03:13:47;;;;;;;13.32;5.57;;;;;;;0.44;71.27;102222.00;5105837;28;20128;-55
2023/02/27 03:16:28;;;;;;;12.38;5.63;;;;;;;0.44;71.35;102218.50;5110415;28;20516;-55
2023/02/27 03:19:08;;;;;;;19.73;6.20;;;;;;;0.39;71.29;102231.72;5108189;28;20074;-55
2023/02/27 03:21:45;;;;;;;15.18;6.05;;;;;;;0.45;71.29;102234.13;5106414;28;20046;-54
2023/02/27 03:24:21;;;;;;;15.20;6.03;;;;;;;0.45;70.51;102236.75;5109770;28;20055;-55
2023/02/27 03:26:52;;;;;;;10.73;5.57;;;;;;;0.45;71.26;102234.13;5105387;28;20102;-54
2023/02/27 03:29:29;;;;;;;15.90;6.60;;;;;;;0.43;70.85;102235.94;5110210;28;20039;-54
2023/02/27 03:32:03;;;;;;;15.02;6.13;;;;;;;0.46;71.20;102245.44;5105337;28;20040;-54
2023/02/27 03:34:34;;;;;;;13.27;5.82;;;;;;;0.38;71.21;102243.06;5110167;28;20127;-55
2023/02/27 03:37:32;;;;;;;16.65;5.97;;;;;;;0.41;71.20;102248.19;5105107;28;20059;-54
2023/02/27 03:40:26;;;;;;;18.40;5.72;;;;;;;0.18;71.77;102252.44;5109166;28;20539;-55
2023/02/27 03:43:03;;;;;;;15.80;5.45;;;;;;;0.29;71.80;102259.03;5095050;28;20044;-55
2023/02/27 03:46:11;;;;;;;16.48;6.22;;;;;;;0.31;71.32;102244.19;5091000;28;20044;-54
2023/02/27 03:48:43;;;;;;;13.68;6.20;;;;;;;0.16;72.82;102237.72;5090510;28;20524;-54
2023/02/27 03:51:12;;;;;;;15.57;6.18;;;;;;;0.20;72.75;102260.22;5095198;28;20051;-54
2023/02/27 03:53:56;;;;;;;16.75;5.78;;;;;;;0.29;72.19;102259.03;5091353;28;20068;-55
2023/02/27 03:56:28;;;;;;;14.02;5.85;;;;;;;0.18;72.82;102255.03;5095847;28;20127;-54
2023/02/27 03:58:55;;;;;;;17.02;6.45;;;;;;;0.23;73.03;102251.44;5090045;28;20043;-54
2023/02/27 04:01:23;;;;;;;14.50;6.60;;;;;;;0.21;73.29;102251.47;5094978;28;20123;-54
2023/02/27 04:03:56;;;;;;;13.85;6.45;;;;;;;0.19;72.61;102254.13;5091561;28;20048;-54
2023/02/27 04:12:58;;;;;;;15.85;6.82;;;;;;;-0.08;74.35;102265.44;5108169;27;20916;-55
2023/02/27 04:15:45;;;;;;;17.00;6.95;;;;;;;-0.11;74.48;102268.16;5111334;28;20069;-53
2023/02/27 04:18:47;;;;;;;16.15;6.45;;;;;;;-0.33;75.26;102275.78;5106372;28;20054;-54
2023/02/27 04:21:27;;;;;;;13.85;6.45;;;;;;;-0.45;76.07;102277.84;5110426;28;20044;-55
2023/02/27 04:24:21;;;;;;;15.27;6.18;;;;;;;-0.42;76.31;102274.28;5106368;28;20044;-55
2023/02/27 04:27:02;;;;;;;15.00;6.90;;;;;;;-0.39;76.15;102269.00;5109507;28;20048;-54
2023/02/27 04:29:46;;;;;;;14.50;6.55;;;;;;;-0.31;76.06;102276.59;5106589;28;20493;-55
2023/02/27 04:32:20;;;;;;;17.70;6.60;;;;;;;-0.29;75.85;102278.25;5110426;28;20032;-54
2023/02/27 04:34:54;;;;;;;17.02;7.00;;;;;;;-0.34;76.54;102274.94;5106449;28;20052;-54
2023/02/27 04:37:46;;;;;;;14.70;6.60;;;;;;;-0.48;76.42;102277.94;5108703;28;20113;-54
2023/02/27 04:40:23;;;;;;;15.45;7.22;;;;;;;-0.48;76.36;102274.50;5107096;28;20055;-54
2023/02/27 04:42:55;;;;;;;17.10;7.22;;;;;;;-0.44;76.70;102271.75;5110488;28;20090;-55
2023/02/27 04:45:27;;;;;;;19.08;7.20;;;;;;;-0.60;77.16;102276.56;5106036;28;20052;-54
2023/02/27 04:48:00;;;;;;;15.57;6.80;;;;;;;-0.73;77.92;102269.97;5110447;28;20032;-54
2023/02/27 04:50:36;;;;;;;14.05;6.80;;;;;;;-0.92;79.04;102274.84;5106055;28;20043;-56
2023/02/27 04:53:13;;;;;;;17.55;6.72;;;;;;;-0.79;79.07;102275.38;5110465;28;20122;-55
2023/02/27 04:55:47;;;;;;;14.57;6.43;;;;;;;-0.69;78.73;102282.03;5106970;28;20047;-55
2023/02/27 04:58:20;;;;;;;16.85;7.28;;;;;;;-0.72;78.63;102278.66;5108148;28;20071;-55
2023/02/27 05:00:53;;;;;;;18.10;7.10;;;;;;;-0.65;78.16;102288.03;5107510;28;20062;-55
2023/02/27 05:03:25;;;;;;;17.60;7.20;;;;;;;-0.73;78.85;102293.44;5106465;28;20051;-54
2023/02/27 05:05:56;;;;;;;17.80;6.18;;;;;;;-0.77;78.58;102291.81;5108863;28;20093;-54
2023/02/27 05:08:43;;;;;;;16.15;7.38;;;;;;;-0.71;78.88;102289.06;5105668;28;20131;-55
2023/02/27 05:11:28;;;;;;;18.67;7.78;;;;;;;-0.80;79.02;102289.28;5109521;28;20136;-56
2023/02/27 05:14:03;;;;;;;17.73;7.10;;;;;;;-0.85;79.58;102289.44;5105451;28;20046;-54
2023/02/27 05:16:42;;;;;;;14.80;6.75;;;;;;;-0.83;80.29;102292.84;5109344;28;20043;-55
2023/02/27 05:19:10;;;;;;;15.73;6.50;;;;;;;-0.85;80.01;102294.63;5105221;28;20048;-54
2023/02/27 05:21:55;;;;;;;16.20;7.20;;;;;;;-0.79;79.57;102289.25;5109386;28;20089;-54
2023/02/27 05:24:34;;;;;;;14.02;7.18;;;;;;;-0.86;80.74;102298.13;5090754;28;20409;-55
2023/02/27 05:27:28;;;;;;;20.90;7.10;;;;;;;-1.09;81.47;102295.28;5095802;28;20051;-53
2023/02/27 05:30:02;;;;;;;15.50;7.32;;;;;;;-0.98;81.45;102303.69;5091190;28;20067;-54
2023/02/27 05:32:48;;;;;;;19.92;7.47;;;;;;;-1.04;81.35;102304.69;5095681;28;20516;-53
2023/02/27 05:35:22;;;;;;;15.98;7.53;;;;;;;-1.07;81.95;102307.41;5091266;28;20044;-55
2023/02/27 05:37:59;;;;;;;18.08;7.80;;;;;;;-1.10;82.21;102309.22;5095745;28;20048;-54
2023/02/27 05:40:34;;;;;;;16.48;7.05;;;;;;;-0.98;81.91;102314.13;5087843;28;20079;-55
2023/02/27 05:43:08;;;;;;;18.10;7.80;;;;;;;-0.97;81.88;102314.06;5095990;28;20040;-55
2023/02/27 05:45:39;;;;;;;27.58;8.65;;;;;;;-0.91;81.48;102317.38;5089510;28;20101;-55
2023/02/27 05:48:13;;;;;;;21.88;8.32;;;;;;;-0.82;81.39;102320.63;5094119;28;20044;-55
2023/02/27 05:50:42;;;;;;;20.23;8.40;;;;;;;-0.80;80.98;102324.03;5091164;28;20139;-55
2023/02/27 05:53:15;;;;;;;18.65;8.00;;;;;;;-0.95;81.15;102327.03;5094161;28;20094;-56
2023/02/27 05:55:49;;;;;;;22.08;8.50;;;;;;;-0.94;81.28;102320.09;5090969;28;20070;-55
2023/02/27 05:58:25;;;;;;;23.90;8.88;;;;;;;-0.85;81.32;102330.28;5095386;28;20044;-55
2023/02/27 06:00:57;;;;;;;19.88;8.35;;;;;;;-0.94;81.48;102320.94;5086725;28;20097;-55
2023/02/27 06:03:26;;;;;;;22.92;8.32;;;;;;;-0.97;81.31;102318.41;5093917;28;20413;-53
2023/02/27 06:05:55;;;;;;;22.60;8.40;;;;;;;-1.10;82.64;102322.25;5089454;28;20093;-53
2023/02/27 06:08:23;;;;;;;21.33;8.15;;;;;;;-1.18;83.45;102333.72;5094886;28;20533;-56
2023/02/27 06:10:49;;;;;;;27.52;8.38;;;;;;;-1.09;83.35;102335.25;5090122;28;20052;-53
2023/02/27 06:13:17;;;;;;;21.70;8.77;;;;;;;-0.98;82.99;102330.59;5095030;28;20485;-55
2023/02/27 06:15:44;;;;;;;20.08;8.38;;;;;;;-0.88;81.87;102339.00;5090481;28;20043;-55
2023/02/27 06:18:12;;;;;;;25.20;9.88;;;;;;;-0.84;81.93;102345.00;5094539;28;20044;-55
2023/02/27 06:20:40;;;;;;;18.95;8.30;;;;;;;-0.81;81.68;102348.38;5088910;28;20075;-55
2023/02/27 06:23:07;;;;;;;19.23;8.27;;;;;;;-0.94;82.13;102349.59;5094377;28;20046;-56
2023/02/27 06:25:34;;;;;;;16.60;8.02;;;;;;;-0.92;81.91;102349.56;5090367;28;20105;-55
2023/02/27 06:28:01;;;;;;;20.92;8.82;;;;;;;-0.99;82.12;102367.94;5076498;28;20044;-55
2023/02/27 06:30:28;;;;;;;24.92;9.02;;;;;;;-1.05;82.46;102357.69;5090529;28;20113;-52
2023/02/27 06:32:55;;;;;;;20.10;8.35;;;;;;;-1.11;83.12;102362.19;5094141;28;20044;-54
2023/02/27 06:35:21;;;;;;;17.50;8.50;;;;;;;-1.15;83.86;102369.22;5087914;28;20076;-54
2023/02/27 06:37:48;;;;;;;33.53;9.57;;;;;;;-1.13;83.78;102371.81;5094183;28;20075;-55
2023/02/27 06:40:15;;;;;;;24.77;8.85;;;;;;;-1.09;83.78;102366.50;5086534;28;20101;-55
2023/02/27 06:42:43;;;;;;;19.83;8.70;;;;;;;-1.08;83.40;102370.78;5094404;28;20158;-54
2023/02/27 06:45:12;;;;;;;19.30;8.57;;;;;;;-0.87;82.59;102374.59;5089923;28;20048;-54
2023/02/27 06:47:40;;;;;;;22.63;8.63;;;;;;;-0.78;82.14;102370.91;5093856;28;20497;-55
2023/02/27 06:50:10;;;;;;;17.90;8.52;;;;;;;-0.89;83.00;102372.91;5080027;28;20060;-55
2023/02/27 06:52:37;;;;;;;22.50;8.73;;;;;;;-0.83;82.60;102371.00;5092841;28;20131;-54
2023/02/27 06:55:06;;;;;;;16.08;8.02;;;;;;;-0.78;82.41;102368.31;5090537;28;20040;-54
2023/02/27 06:57:33;;;;;;;17.48;8.88;;;;;;;-0.78;82.27;102376.13;5093762;28;20051;-54
2023/02/27 07:00:01;;;;;;;18.23;8.38;;;;;;;-0.75;82.86;102377.78;5091509;28;20040;-54
2023/02/27 07:02:27;;;;;;;26.00;9.30;;;;;;;-0.68;82.38;102368.91;5091768;28;20111;-52
2023/02/27 07:04:54;;;;;;;21.02;9.45;;;;;;;-0.68;82.78;102367.13;5092788;28;20123;-54
2023/02/27 07:07:22;;;;;;;21.13;9.07;;;;;;;-0.71;82.52;102380.28;5082488;28;20497;-53
2023/02/27 07:09:48;;;;;;;22.58;9.13;;;;;;;-0.64;82.67;102384.44;5093732;28;20044;-54
2023/02/27 07:12:15;;;;;;;24.85;9.38;;;;;;;-0.54;81.99;102385.03;5087808;28;20048;-54
2023/02/27 07:14:42;;;;;;;19.38;9.00;;;;;;;-0.37;81.87;102386.31;5093650;28;20044;-55
2023/02/27 07:17:09;;;;;;;22.70;9.38;;;;;;;-0.47;80.95;102390.94;5089600;28;20432;-54
2023/02/27 07:19:36;;;;;;;22.20;9.57;;;;;;;-0.40;80.42;102392.44;5093848;28;20044;-54
2023/02/27 07:22:02;;;;;;;24.50;9.80;;;;;;;-0.52;81.19;102398.03;5088934;28;20097;-56
2023/02/27 07:24:29;;;;;;;20.77;9.15;;;;;;;-0.55;80.79;102398.09;5093464;28;20056;-54
2023/02/27 07:26:56;;;;;;;22.00;8.48;;;;;;;-0.54;80.83;102398.06;5088063;28;20105;-54
2023/02/27 07:29:23;;;;;;;27.50;9.52;;;;;;;-0.49;80.86;102403.13;5088808;28;20048;-54
2023/02/27 07:31:49;;;;;;;24.77;9.25;;;;;;;-0.42;80.15;102408.16;5089021;28;20047;-54
2023/02/27 07:34:16;;;;;;;21.02;9.38;;;;;;;-0.46;80.19;102406.50;5092939;28;20047;-54
2023/02/27 07:36:43;;;;;;;23.75;10.02;;;;;;;-0.33;80.17;102408.78;5088724;28;20059;-54
2023/02/27 07:39:11;;;;;;;25.27;9.38;;;;;;;-0.27;79.80;102411.25;5093391;28;20052;-54
2023/02/27 07:41:38;;;;;;;25.48;8.95;;;;;;;-0.25;79.94;102418.09;5085531;28;20553;-54
2023/02/27 07:44:07;;;;;;;20.92;8.93;;;;;;;-0.14;79.29;102416.97;5093460;28;20048;-54
2023/02/27 07:46:34;;;;;;;27.30;9.73;;;;;;;-0.21;78.76;102421.50;5088785;28;20048;-53
2023/02/27 07:49:01;;;;;;;21.08;9.43;;;;;;;-0.05;78.88;102424.53;5093129;28;20493;-54
2023/02/27 07:51:28;;;;;;;19.17;8.68;;;;;;;-0.01;78.62;102410.47;5090289;28;20143;-56
2023/02/27 07:53:57;;;;;;;18.42;8.82;;;;;;;-0.05;77.92;102417.53;5092353;28;20067;-54
2023/02/27 07:56:25;;;;;;;20.10;9.30;;;;;;;-0.02;78.15;102429.63;5091243;28;20055;-55
2023/02/27 07:58:52;;;;;;;23.30;9.80;;;;;;;0.09;77.34;102429.31;5091466;28;20040;-54
2023/02/27 08:01:19;;;;;;;22.40;9.30;;;;;;;0.17;76.90;102427.34;5091628;28;20054;-55
2023/02/27 08:03:45;;;;;;;21.02;9.07;;;;;;;0.27;76.72;102426.16;5089316;28;20037;-55
2023/02/27 08:06:13;;;;;;;24.52;10.18;;;;;;;0.50;76.01;102419.41;5093116;28;20048;-54
2023/02/27 08:08:40;;;;;;;24.70;9.85;;;;;;;0.60;75.10;102433.88;5089364;28;20045;-55
2023/02/27 08:11:07;;;;;;;23.58;10.40;;;;;;;0.73;73.93;102431.75;5092914;28;20063;-55
2023/02/27 08:13:34;;;;;;;23.30;10.15;;;;;;;0.94;73.80;102433.63;5088708;28;20093;-55
2023/02/27 08:16:20;;;;;;;28.23;9.57;;;;;;;1.03;72.95;102421.19;5090814;28;20557;-55
2023/02/27 08:18:47;;;;;;;18.83;9.18;;;;;;;0.93;73.99;102423.25;5090408;28;20127;-55
2023/02/27 08:21:14;;;;;;;23.25;9.70;;;;;;;1.02;73.68;102422.94;5093308;28;20135;-54
2023/02/27 08:23:41;;;;;;;21.65;9.45;;;;;;;1.29;72.73;102417.66;5088728;28;20043;-55
2023/02/27 08:26:08;;;;;;;20.00;8.77;;;;;;;1.17;72.51;102416.34;5092761;28;20091;-55
2023/02/27 08:28:35;;;;;;;19.92;9.48;;;;;;;1.42;71.99;102418.09;5089038;28;20094;-55
2023/02/27 08:31:02;;;;;;;19.52;9.10;;;;;;;1.19;71.65;102409.28;5093202;28;20039;-55
2023/02/27 08:33:28;;;;;;;20.30;9.18;;;;;;;1.44;71.11;102419.75;5088408;28;20036;-55
2023/02/27 08:35:55;;;;;;;19.17;8.63;;;;;;;1.40;70.43;102420.78;5092890;28;20044;-55
2023/02/27 08:38:22;;;;;;;23.42;9.00;;;;;;;1.46;70.77;102422.34;5088376;28;20052;-55
2023/02/27 08:40:52;;;;;;;23.35;8.40;;;;;;;1.70;70.22;102424.06;5091330;28;20070;-55
2023/02/27 08:43:20;;;;;;;24.02;8.80;;;;;;;1.73;70.13;102433.56;5084998;28;20421;-56
2023/02/27 08:45:48;;;;;;;21.00;9.43;;;;;;;1.91;69.84;102439.88;5091870;28;20044;-55
2023/02/27 08:48:16;;;;;;;19.70;7.90;;;;;;;1.53;69.16;102429.91;5088233;28;20048;-54
2023/02/27 08:50:44;;;;;;;22.08;8.23;;;;;;;1.61;69.07;102431.41;5093057;28;20113;-55
2023/02/27 08:53:11;;;;;;;17.90;8.07;;;;;;;1.55;69.53;102424.63;5088250;28;20124;-55
2023/02/27 08:55:38;;;;;;;19.95;7.70;;;;;;;1.48;69.25;102429.19;5091260;28;20120;-55
2023/02/27 08:58:04;;;;;;;20.15;7.72;;;;;;;1.49;69.92;102427.44;5089816;28;20490;-55
2023/02/27 09:00:31;;;;;;;19.73;6.75;;;;;;;1.28;69.39;102426.44;5096202;28;20044;-55
2023/02/27 09:03:00;;;;;;;17.98;8.10;;;;;;;1.36;70.23;102421.78;5092016;28;20036;-55
2023/02/27 09:05:27;;;;;;;18.67;7.15;;;;;;;1.23;69.79;102423.97;5096618;28;20052;-55
2023/02/27 09:07:54;;;;;;;18.13;7.70;;;;;;;1.30;70.06;102422.84;5090642;28;20052;-55
2023/02/27 09:10:21;;;;;;;19.98;8.10;;;;;;;1.49;69.96;102432.66;5095703;28;20044;-54
2023/02/27 09:12:48;;;;;;;18.13;7.35;;;;;;;1.56;69.27;102428.94;5091776;28;20454;-55
2023/02/27 09:15:15;;;;;;;21.15;7.38;;;;;;;1.53;69.17;102432.50;5096349;28;20106;-54
2023/02/27 09:17:42;;;;;;;16.15;7.25;;;;;;;1.59;69.45;102431.44;5092019;28;20282;-55
2023/02/27 09:20:09;;;;;;;14.27;7.05;;;;;;;1.72;69.27;102437.09;5096170;28;20044;-55
2023/02/27 09:22:37;;;;;;;19.48;8.10;;;;;;;1.75;69.49;102436.09;5091654;28;20237;-55
2023/02/27 09:25:04;;;;;;;21.42;7.93;;;;;;;1.81;69.31;102438.53;5095973;28;20513;-55
2023/02/27 09:27:31;;;;;;;21.50;7.55;;;;;;;1.92;69.26;102441.59;5091655;28;20052;-55
2023/02/27 09:29:58;;;;;;;16.33;7.15;;;;;;;2.07;68.26;102448.03;5090457;28;20048;-55
2023/02/27 09:32:26;;;;;;;15.20;6.45;;;;;;;2.16;67.52;102438.97;5071248;28;20308;-55
2023/02/27 09:34:54;;;;;;;14.95;5.78;;;;;;;2.22;66.49;102441.34;5075342;28;20063;-55
2023/02/27 09:37:23;;;;;;;14.10;5.57;;;;;;;2.23;66.97;102436.06;5071993;28;20448;-55
2023/02/27 09:39:50;;;;;;;17.45;5.70;;;;;;;2.52;65.88;102446.34;5075442;28;20047;-55
2023/02/27 09:42:21;;;;;;;19.23;5.00;;;;;;;2.67;65.20;102443.09;5072303;28;20072;-55
2023/02/27 09:44:51;;;;;;;12.83;4.43;;;;;;;2.76;64.94;102440.09;5060059;28;20057;-59
2023/02/27 09:50:06;;;;;;;17.58;4.18;;;;;;;2.68;64.40;102442.19;5110867;27;20380;-60
2023/02/27 09:52:36;;;;;;;13.02;4.05;;;;;;;2.72;64.83;102441.16;5106441;28;20142;-57
2023/02/27 09:55:10;;;;;;;12.50;4.18;;;;;;;2.86;64.76;102443.22;5110435;28;20085;-59
2023/02/27 09:57:45;;;;;;;13.80;3.90;;;;;;;3.04;63.45;102437.22;5106204;28;20044;-59
2023/02/27 10:00:29;;;;;;;13.82;4.13;;;;;;;3.18;63.22;102441.88;5103931;28;20052;-58
2023/02/27 10:03:26;;;;;;;12.13;3.67;;;;;;;3.45;63.46;102436.38;5085718;28;20158;-58
2023/02/27 10:06:10;;;;;;;10.82;3.47;;;;;;;3.46;61.90;102438.09;5090718;28;20068;-58
2023/02/27 10:08:52;;;;;;;17.08;3.92;;;;;;;3.44;60.73;102432.91;5085404;28;20048;-62
2023/02/27 10:11:25;;;;;;;;;;;;;;;3.46;59.91;102441.56;5090821;28;20048;-58
2023/02/27 10:14:03;;;;;;;12.07;3.65;;;;;;;3.58;60.02;102427.03;5085555;28;19924;-59
2023/02/27 10:16:32;;;;;;;10.57;3.55;;;;;;;3.59;59.58;102441.88;5090220;28;20131;-58
2023/02/27 10:19:04;;;;;;;13.95;3.65;;;;;;;3.69;59.90;102444.09;5084673;28;20390;-59
2023/02/27 10:21:38;;;;;;;14.50;3.47;;;;;;;3.49;59.38;102431.84;5108083;28;20102;-59
2023/02/27 10:24:15;;;;;;;17.02;4.00;;;;;;;3.34;60.03;102423.72;5090753;28;20045;-59
2023/02/27 10:26:44;;;;;;;15.02;3.40;;;;;;;3.61;60.39;102433.94;5090114;28;20045;-59
2023/02/27 10:29:19;;;;;;;16.20;3.75;;;;;;;3.98;59.86;102437.53;5085303;28;20045;-58
2023/02/27 10:31:51;;;;;;;13.25;3.50;;;;;;;4.43;57.95;102441.59;5089845;28;20064;-58
2023/02/27 10:34:21;;;;;;;13.65;3.67;;;;;;;5.31;55.43;102440.78;5085366;28;20078;-58
2023/02/27 10:36:48;;;;;;;18.35;3.60;;;;;;;5.47;53.28;102438.19;5089866;28;20114;-58
2023/02/27 10:39:17;;;;;;;13.43;3.35;;;;;;;5.93;53.17;102448.97;5085196;28;20048;-59
2023/02/27 10:41:45;;;;;;;15.00;3.60;;;;;;;6.77;50.47;102449.69;5088302;28;20056;-58
2023/02/27 10:44:17;;;;;;;11.13;3.03;;;;;;;6.54;49.44;102443.94;5081717;28;20121;-58
2023/02/27 10:46:46;;;;;;;11.00;3.50;;;;;;;7.53;47.58;102443.50;5089583;28;20040;-57
2023/02/27 10:49:17;;;;;;;11.35;3.00;;;;;;;7.77;45.85;102441.16;5084725;28;20688;-58
2023/02/27 10:51:45;;;;;;;;;;;;;;;7.78;44.23;102443.69;5109631;28;20484;-58
2023/02/27 10:56:55;;;;;;;9.52;3.15;;;;;;;8.03;44.84;102453.59;5110989;27;20380;-58
2023/02/27 10:59:27;;;;;;;10.50;3.17;;;;;;;7.79;44.44;102447.19;5106366;28;20119;-58
2023/02/27 11:01:58;;;;;;;12.43;3.28;;;;;;;7.29;46.32;102454.56;5130861;28;20043;-59
2023/02/27 11:04:30;;;;;;;;;;;;;;;6.69;47.51;102452.75;5127650;27;20050;-58
2023/02/27 11:06:59;;;;;;;19.88;4.03;;;;;;;6.34;48.46;102453.78;5131464;27;19946;-58
2023/02/27 11:09:31;;;;;;;11.85;3.85;;;;;;;8.93;44.02;102445.25;5125607;28;20039;-58
2023/02/27 11:12:27;;;;;;;10.52;3.05;;;;;;;7.48;45.44;102455.19;5131358;27;20047;-59
2023/02/27 11:14:57;;;;;;;12.63;4.00;;;;;;;6.22;48.39;102450.97;5126435;28;20126;-59
2023/02/27 11:17:28;;;;;;;11.65;3.83;;;;;;;6.50;47.75;102452.94;5131059;27;20043;-58
2023/02/27 11:19:56;;;;;;;11.50;3.73;;;;;;;7.96;44.82;102444.34;5122540;27;20075;-58
2023/02/27 11:22:26;;;;;;;15.90;4.35;;;;;;;8.11;43.70;102442.53;5110438;28;20142;-58
2023/02/27 11:25:16;;;;;;;13.45;4.40;;;;;;;6.61;47.48;102439.16;5105814;28;20036;-58
2023/02/27 11:27:45;;;;;;;16.17;3.65;;;;;;;6.63;47.82;102430.22;5110487;28;20142;-58
2023/02/27 11:30:26;;;;;;;13.50;3.92;;;;;;;6.71;47.94;102438.56;5105999;28;20439;-58
2023/02/27 11:32:56;;;;;;;11.80;4.30;;;;;;;7.07;48.05;102420.69;5110529;28;20114;-58
2023/02/27 11:35:30;;;;;;;14.98;4.13;;;;;;;8.81;43.61;102425.78;5105896;28;20293;-58
2023/02/27 11:38:01;;;;;;;13.70;4.35;;;;;;;9.01;42.31;102416.50;5108756;28;20358;-58
2023/02/27 11:40:32;;;;;;;11.63;3.88;;;;;;;12.61;37.63;102426.09;5105630;28;20497;-58
2023/02/27 11:43:20;;;;;;;14.30;3.75;;;;;;;13.50;33.24;102418.63;5109873;28;20043;-58
2023/02/27 11:45:51;;;;;;;14.52;4.20;;;;;;;12.79;34.72;102405.09;5099518;28;20505;-58
2023/02/27 11:48:23;;;;;;;12.75;3.88;;;;;;;12.93;34.31;102407.41;5108886;28;20067;-59
2023/02/27 11:54:14;;;;;;;11.07;3.50;;;;;;;17.40;28.20;102406.81;5131280;27;20782;-59
2023/02/27 11:56:51;;;;;;;12.80;3.72;;;;;;;17.48;27.06;102402.50;5106485;28;20101;-59
2023/02/27 11:59:27;;;;;;;12.13;3.80;;;;;;;18.82;25.46;102402.56;5110627;28;20055;-58
2023/02/27 12:02:13;;;;;;;14.98;3.42;;;;;;;17.03;26.78;102401.72;5088185;28;20032;-58
2023/02/27 12:07:28;;;;;;;11.60;3.47;;;;;;;18.74;24.40;102398.00;5080769;28;20421;-59
2023/02/27 12:10:10;;;;;;;12.90;3.42;;;;;;;19.23;23.87;102396.31;5074432;28;20782;-59